sensor_id;sensor_type;location;lat;lon;timestamp;P1;durP1;ratioP1;P2;durP2;ratioP2
7571;SDS011;3827;49.928;8.548;2023-04-15T00:02:12;5.03;;;3.92;;
7571;SDS011;3827;49.928;8.548;2023-04-15T00:04:40;5.65;;;4.45;;
7571;SDS011;3827;49.928;8.548;2023-04-15T00:07:07;4.10;;;3.60;;
7571;SDS011;3827;49.928;8.548;2023-04-15T00:09:34;4.30;;;3.88;;
7571;SDS011;3827;49.928;8.548;2023-04-15T00:12:02;4.55;;;3.70;;
7571;SDS011;3827;49.928;8.548;2023-04-15T00:14:29;5.07;;;3.85;;
7571;SDS011;3827;49.928;8.548;2023-04-15T00:16:56;6.43;;;4.45;;
7571;SDS011;3827;49.928;8.548;2023-04-15T00:19:23;5.22;;;4.15;;
7571;SDS011;3827;49.928;8.548;2023-04-15T00:21:50;4.63;;;3.70;;
7571;SDS011;3827;49.928;8.548;2023-04-15T00:24:17;4.32;;;3.92;;
7571;SDS011;3827;49.928;8.548;2023-04-15T00:26:44;5.97;;;4.20;;
7571;SDS011;3827;49.928;8.548;2023-04-15T00:29:12;5.40;;;4.03;;
7571;SDS011;3827;49.928;8.548;2023-04-15T00:31:39;5.75;;;4.00;;
7571;SDS011;3827;49.928;8.548;2023-04-15T00:34:06;4.03;;;3.50;;
7571;SDS011;3827;49.928;8.548;2023-04-15T00:36:33;5.63;;;3.65;;
7571;SDS011;3827;49.928;8.548;2023-04-15T00:39:00;4.55;;;3.58;;
7571;SDS011;3827;49.928;8.548;2023-04-15T00:41:27;4.70;;;3.28;;
7571;SDS011;3827;49.928;8.548;2023-04-15T00:43:54;4.30;;;3.22;;
7571;SDS011;3827;49.928;8.548;2023-04-15T00:46:22;7.00;;;3.40;;
7571;SDS011;3827;49.928;8.548;2023-04-15T00:48:50;3.70;;;3.40;;
7571;SDS011;3827;49.928;8.548;2023-04-15T00:51:18;4.43;;;3.35;;
7571;SDS011;3827;49.928;8.548;2023-04-15T00:53:45;5.43;;;3.60;;
7571;SDS011;3827;49.928;8.548;2023-04-15T00:56:12;4.20;;;3.37;;
7571;SDS011;3827;49.928;8.548;2023-04-15T01:01:07;4.50;;;3.53;;
7571;SDS011;3827;49.928;8.548;2023-04-15T01:03:35;5.07;;;3.90;;
7571;SDS011;3827;49.928;8.548;2023-04-15T01:06:02;5.10;;;4.18;;
7571;SDS011;3827;49.928;8.548;2023-04-15T01:08:29;5.50;;;3.70;;
7571;SDS011;3827;49.928;8.548;2023-04-15T01:10:56;5.50;;;4.30;;
7571;SDS011;3827;49.928;8.548;2023-04-15T01:13:27;5.15;;;4.10;;
7571;SDS011;3827;49.928;8.548;2023-04-15T01:15:55;4.30;;;3.90;;
7571;SDS011;3827;49.928;8.548;2023-04-15T01:18:22;4.13;;;3.72;;
7571;SDS011;3827;49.928;8.548;2023-04-15T01:20:51;4.78;;;4.30;;
7571;SDS011;3827;49.928;8.548;2023-04-15T01:23:18;4.60;;;4.07;;
7571;SDS011;3827;49.928;8.548;2023-04-15T01:25:47;5.30;;;4.60;;
7571;SDS011;3827;49.928;8.548;2023-04-15T01:28:14;6.03;;;4.78;;
7571;SDS011;3827;49.928;8.548;2023-04-15T01:30:41;7.53;;;5.43;;
7571;SDS011;3827;49.928;8.548;2023-04-15T01:33:08;7.72;;;5.70;;
7571;SDS011;3827;49.928;8.548;2023-04-15T01:35:35;9.05;;;6.13;;
7571;SDS011;3827;49.928;8.548;2023-04-15T01:38:04;6.18;;;5.68;;
7571;SDS011;3827;49.928;8.548;2023-04-15T01:40:31;6.93;;;6.00;;
7571;SDS011;3827;49.928;8.548;2023-04-15T01:42:59;5.90;;;5.25;;
7571;SDS011;3827;49.928;8.548;2023-04-15T01:45:26;6.00;;;5.40;;
7571;SDS011;3827;49.928;8.548;2023-04-15T01:47:53;6.80;;;5.68;;
7571;SDS011;3827;49.928;8.548;2023-04-15T01:50:20;5.80;;;5.30;;
7571;SDS011;3827;49.928;8.548;2023-04-15T01:52:47;6.13;;;5.63;;
7571;SDS011;3827;49.928;8.548;2023-04-15T01:55:14;6.20;;;5.60;;
7571;SDS011;3827;49.928;8.548;2023-04-15T01:57:41;6.85;;;5.63;;
7571;SDS011;3827;49.928;8.548;2023-04-15T02:00:09;6.93;;;5.93;;
7571;SDS011;3827;49.928;8.548;2023-04-15T02:02:37;6.35;;;5.75;;
7571;SDS011;3827;49.928;8.548;2023-04-15T02:05:04;8.68;;;5.35;;
7571;SDS011;3827;49.928;8.548;2023-04-15T02:07:31;6.07;;;5.30;;
7571;SDS011;3827;49.928;8.548;2023-04-15T02:09:58;6.28;;;5.65;;
7571;SDS011;3827;49.928;8.548;2023-04-15T02:12:24;7.63;;;5.32;;
7571;SDS011;3827;49.928;8.548;2023-04-15T02:14:51;6.22;;;5.63;;
7571;SDS011;3827;49.928;8.548;2023-04-15T02:17:20;5.90;;;5.30;;
7571;SDS011;3827;49.928;8.548;2023-04-15T02:19:46;6.70;;;6.10;;
7571;SDS011;3827;49.928;8.548;2023-04-15T02:22:13;6.10;;;5.50;;
7571;SDS011;3827;49.928;8.548;2023-04-15T02:24:42;5.70;;;5.22;;
7571;SDS011;3827;49.928;8.548;2023-04-15T02:27:14;5.50;;;5.00;;
7571;SDS011;3827;49.928;8.548;2023-04-15T02:29:42;5.65;;;5.15;;
7571;SDS011;3827;49.928;8.548;2023-04-15T02:32:09;6.82;;;5.85;;
7571;SDS011;3827;49.928;8.548;2023-04-15T02:34:38;6.38;;;5.78;;
7571;SDS011;3827;49.928;8.548;2023-04-15T02:37:06;6.30;;;5.70;;
7571;SDS011;3827;49.928;8.548;2023-04-15T02:39:33;7.78;;;5.90;;
7571;SDS011;3827;49.928;8.548;2023-04-15T02:42:00;6.22;;;5.63;;
7571;SDS011;3827;49.928;8.548;2023-04-15T02:44:27;6.77;;;6.03;;
7571;SDS011;3827;49.928;8.548;2023-04-15T02:46:55;6.15;;;5.22;;
7571;SDS011;3827;49.928;8.548;2023-04-15T02:49:22;5.78;;;5.20;;
7571;SDS011;3827;49.928;8.548;2023-04-15T02:51:50;5.85;;;5.38;;
7571;SDS011;3827;49.928;8.548;2023-04-15T02:54:18;6.10;;;5.50;;
7571;SDS011;3827;49.928;8.548;2023-04-15T02:56:46;6.35;;;5.43;;
7571;SDS011;3827;49.928;8.548;2023-04-15T02:59:14;6.18;;;5.63;;
7571;SDS011;3827;49.928;8.548;2023-04-15T03:01:40;6.40;;;5.80;;
7571;SDS011;3827;49.928;8.548;2023-04-15T03:04:07;5.60;;;5.15;;
7571;SDS011;3827;49.928;8.548;2023-04-15T03:06:34;6.23;;;5.63;;
7571;SDS011;3827;49.928;8.548;2023-04-15T03:09:02;7.03;;;6.20;;
7571;SDS011;3827;49.928;8.548;2023-04-15T03:11:29;6.15;;;5.53;;
7571;SDS011;3827;49.928;8.548;2023-04-15T03:13:56;6.53;;;5.93;;
7571;SDS011;3827;49.928;8.548;2023-04-15T03:16:23;6.47;;;5.88;;
7571;SDS011;3827;49.928;8.548;2023-04-15T03:18:50;6.75;;;6.15;;
7571;SDS011;3827;49.928;8.548;2023-04-15T03:21:17;6.97;;;6.28;;
7571;SDS011;3827;49.928;8.548;2023-04-15T03:23:44;6.73;;;6.03;;
7571;SDS011;3827;49.928;8.548;2023-04-15T03:26:23;6.43;;;5.82;;
7571;SDS011;3827;49.928;8.548;2023-04-15T03:28:52;7.78;;;5.85;;
7571;SDS011;3827;49.928;8.548;2023-04-15T03:31:19;6.72;;;6.07;;
7571;SDS011;3827;49.928;8.548;2023-04-15T03:33:46;6.10;;;5.60;;
7571;SDS011;3827;49.928;8.548;2023-04-15T03:36:13;7.20;;;5.82;;
7571;SDS011;3827;49.928;8.548;2023-04-15T03:38:40;5.95;;;5.45;;
7571;SDS011;3827;49.928;8.548;2023-04-15T03:41:07;5.77;;;5.33;;
7571;SDS011;3827;49.928;8.548;2023-04-15T03:43:35;6.00;;;5.50;;
7571;SDS011;3827;49.928;8.548;2023-04-15T03:46:02;5.68;;;5.18;;
7571;SDS011;3827;49.928;8.548;2023-04-15T03:48:29;6.38;;;5.78;;
7571;SDS011;3827;49.928;8.548;2023-04-15T03:50:56;5.93;;;5.43;;
7571;SDS011;3827;49.928;8.548;2023-04-15T03:53:23;5.90;;;5.30;;
7571;SDS011;3827;49.928;8.548;2023-04-15T03:55:50;5.65;;;5.15;;
7571;SDS011;3827;49.928;8.548;2023-04-15T03:58:16;5.97;;;5.47;;
7571;SDS011;3827;49.928;8.548;2023-04-15T04:00:45;5.60;;;5.20;;
7571;SDS011;3827;49.928;8.548;2023-04-15T04:03:11;5.70;;;5.20;;
7571;SDS011;3827;49.928;8.548;2023-04-15T04:05:38;5.72;;;5.22;;
7571;SDS011;3827;49.928;8.548;2023-04-15T04:08:06;6.20;;;5.60;;
7571;SDS011;3827;49.928;8.548;2023-04-15T04:10:33;5.90;;;5.40;;
7571;SDS011;3827;49.928;8.548;2023-04-15T04:13:00;5.83;;;5.33;;
7571;SDS011;3827;49.928;8.548;2023-04-15T04:15:27;6.00;;;5.50;;
7571;SDS011;3827;49.928;8.548;2023-04-15T04:17:55;6.60;;;6.00;;
7571;SDS011;3827;49.928;8.548;2023-04-15T04:20:22;6.60;;;5.90;;
7571;SDS011;3827;49.928;8.548;2023-04-15T04:22:49;6.07;;;5.50;;
7571;SDS011;3827;49.928;8.548;2023-04-15T04:25:15;6.25;;;5.65;;
7571;SDS011;3827;49.928;8.548;2023-04-15T04:27:42;6.22;;;5.63;;
7571;SDS011;3827;49.928;8.548;2023-04-15T04:30:10;6.15;;;5.55;;
7571;SDS011;3827;49.928;8.548;2023-04-15T04:32:37;6.03;;;5.43;;
7571;SDS011;3827;49.928;8.548;2023-04-15T04:35:06;6.53;;;5.93;;
7571;SDS011;3827;49.928;8.548;2023-04-15T04:37:33;7.07;;;6.22;;
7571;SDS011;3827;49.928;8.548;2023-04-15T04:40:00;5.95;;;5.45;;
7571;SDS011;3827;49.928;8.548;2023-04-15T04:42:27;5.40;;;4.90;;
7571;SDS011;3827;49.928;8.548;2023-04-15T04:44:55;5.80;;;5.30;;
7571;SDS011;3827;49.928;8.548;2023-04-15T04:47:22;5.88;;;5.28;;
7571;SDS011;3827;49.928;8.548;2023-04-15T04:49:49;6.82;;;5.53;;
7571;SDS011;3827;49.928;8.548;2023-04-15T04:52:17;5.90;;;5.40;;
7571;SDS011;3827;49.928;8.548;2023-04-15T04:54:43;5.40;;;5.00;;
7571;SDS011;3827;49.928;8.548;2023-04-15T04:57:11;6.18;;;5.57;;
7571;SDS011;3827;49.928;8.548;2023-04-15T04:59:38;6.30;;;5.70;;
7571;SDS011;3827;49.928;8.548;2023-04-15T05:02:05;6.27;;;5.67;;
7571;SDS011;3827;49.928;8.548;2023-04-15T05:04:32;6.45;;;5.85;;
7571;SDS011;3827;49.928;8.548;2023-04-15T05:06:59;6.28;;;5.68;;
7571;SDS011;3827;49.928;8.548;2023-04-15T05:09:27;7.05;;;5.47;;
7571;SDS011;3827;49.928;8.548;2023-04-15T05:11:56;6.18;;;5.57;;
7571;SDS011;3827;49.928;8.548;2023-04-15T05:14:23;6.30;;;5.72;;
7571;SDS011;3827;49.928;8.548;2023-04-15T05:16:50;5.88;;;5.28;;
7571;SDS011;3827;49.928;8.548;2023-04-15T05:19:16;5.75;;;5.20;;
7571;SDS011;3827;49.928;8.548;2023-04-15T05:21:43;6.05;;;5.50;;
7571;SDS011;3827;49.928;8.548;2023-04-15T05:24:10;5.40;;;4.95;;
7571;SDS011;3827;49.928;8.548;2023-04-15T05:26:38;6.00;;;5.40;;
7571;SDS011;3827;49.928;8.548;2023-04-15T05:29:06;5.20;;;4.80;;
7571;SDS011;3827;49.928;8.548;2023-04-15T05:31:32;5.32;;;4.82;;
7571;SDS011;3827;49.928;8.548;2023-04-15T05:33:59;5.90;;;5.20;;
7571;SDS011;3827;49.928;8.548;2023-04-15T05:36:26;5.47;;;4.97;;
7571;SDS011;3827;49.928;8.548;2023-04-15T05:38:53;7.45;;;5.45;;
7571;SDS011;3827;49.928;8.548;2023-04-15T05:41:20;5.20;;;4.72;;
7571;SDS011;3827;49.928;8.548;2023-04-15T05:43:48;5.72;;;5.22;;
7571;SDS011;3827;49.928;8.548;2023-04-15T05:46:15;5.50;;;5.00;;
7571;SDS011;3827;49.928;8.548;2023-04-15T05:48:42;5.70;;;5.10;;
7571;SDS011;3827;49.928;8.548;2023-04-15T05:51:08;6.10;;;5.50;;
7571;SDS011;3827;49.928;8.548;2023-04-15T05:53:35;6.30;;;5.70;;
7571;SDS011;3827;49.928;8.548;2023-04-15T05:56:03;6.40;;;5.80;;
7571;SDS011;3827;49.928;8.548;2023-04-15T05:58:30;6.80;;;5.65;;
7571;SDS011;3827;49.928;8.548;2023-04-15T06:00:58;6.00;;;5.40;;
7571;SDS011;3827;49.928;8.548;2023-04-15T06:03:25;6.47;;;5.88;;
7571;SDS011;3827;49.928;8.548;2023-04-15T06:05:51;6.88;;;6.28;;
7571;SDS011;3827;49.928;8.548;2023-04-15T06:08:18;6.43;;;5.88;;
7571;SDS011;3827;49.928;8.548;2023-04-15T06:10:45;6.80;;;6.10;;
7571;SDS011;3827;49.928;8.548;2023-04-15T06:13:12;7.80;;;6.22;;
7571;SDS011;3827;49.928;8.548;2023-04-15T06:15:39;6.97;;;6.28;;
7571;SDS011;3827;49.928;8.548;2023-04-15T06:18:07;6.40;;;5.70;;
7571;SDS011;3827;49.928;8.548;2023-04-15T06:20:34;5.67;;;5.17;;
7571;SDS011;3827;49.928;8.548;2023-04-15T06:23:01;6.07;;;5.57;;
7571;SDS011;3827;49.928;8.548;2023-04-15T06:25:28;5.93;;;5.43;;
7571;SDS011;3827;49.928;8.548;2023-04-15T06:27:54;6.28;;;5.70;;
7571;SDS011;3827;49.928;8.548;2023-04-15T06:30:21;6.97;;;6.38;;
7571;SDS011;3827;49.928;8.548;2023-04-15T06:32:48;8.43;;;6.55;;
7571;SDS011;3827;49.928;8.548;2023-04-15T06:35:16;7.00;;;6.30;;
7571;SDS011;3827;49.928;8.548;2023-04-15T06:37:43;6.35;;;5.75;;
7571;SDS011;3827;49.928;8.548;2023-04-15T06:40:10;6.07;;;5.57;;
7571;SDS011;3827;49.928;8.548;2023-04-15T06:42:37;6.32;;;5.45;;
7571;SDS011;3827;49.928;8.548;2023-04-15T06:45:05;5.65;;;5.13;;
7571;SDS011;3827;49.928;8.548;2023-04-15T06:47:32;4.88;;;4.43;;
7571;SDS011;3827;49.928;8.548;2023-04-15T06:49:59;5.15;;;4.38;;
7571;SDS011;3827;49.928;8.548;2023-04-15T06:52:27;5.93;;;4.28;;
7571;SDS011;3827;49.928;8.548;2023-04-15T06:54:54;4.57;;;4.18;;
7571;SDS011;3827;49.928;8.548;2023-04-15T06:57:21;5.55;;;4.22;;
7571;SDS011;3827;49.928;8.548;2023-04-15T06:59:48;4.30;;;3.90;;
7571;SDS011;3827;49.928;8.548;2023-04-15T07:02:16;4.70;;;4.07;;
7571;SDS011;3827;49.928;8.548;2023-04-15T07:04:43;4.63;;;4.22;;
7571;SDS011;3827;49.928;8.548;2023-04-15T07:07:10;5.10;;;4.10;;
7571;SDS011;3827;49.928;8.548;2023-04-15T07:09:38;5.90;;;4.13;;
7571;SDS011;3827;49.928;8.548;2023-04-15T07:12:05;7.30;;;4.40;;
7571;SDS011;3827;49.928;8.548;2023-04-15T07:14:32;7.07;;;4.63;;
7571;SDS011;3827;49.928;8.548;2023-04-15T07:16:59;4.43;;;4.03;;
7571;SDS011;3827;49.928;8.548;2023-04-15T07:19:26;4.40;;;4.00;;
7571;SDS011;3827;49.928;8.548;2023-04-15T07:21:53;5.28;;;4.78;;
7571;SDS011;3827;49.928;8.548;2023-04-15T07:24:19;5.32;;;4.78;;
7571;SDS011;3827;49.928;8.548;2023-04-15T07:26:51;4.80;;;4.40;;
7571;SDS011;3827;49.928;8.548;2023-04-15T07:29:19;5.30;;;4.80;;
7571;SDS011;3827;49.928;8.548;2023-04-15T07:31:46;5.95;;;5.15;;
7571;SDS011;3827;49.928;8.548;2023-04-15T07:34:13;5.40;;;4.90;;
7571;SDS011;3827;49.928;8.548;2023-04-15T07:36:40;5.78;;;5.20;;
7571;SDS011;3827;49.928;8.548;2023-04-15T07:39:07;5.28;;;4.78;;
7571;SDS011;3827;49.928;8.548;2023-04-15T07:41:34;5.13;;;4.63;;
7571;SDS011;3827;49.928;8.548;2023-04-15T07:44:02;6.75;;;6.05;;
7571;SDS011;3827;49.928;8.548;2023-04-15T07:46:29;6.82;;;6.22;;
7571;SDS011;3827;49.928;8.548;2023-04-15T07:48:56;9.27;;;6.10;;
7571;SDS011;3827;49.928;8.548;2023-04-15T07:51:23;5.45;;;4.97;;
7571;SDS011;3827;49.928;8.548;2023-04-15T07:53:49;7.22;;;6.03;;
7571;SDS011;3827;49.928;8.548;2023-04-15T07:56:16;6.00;;;5.40;;
7571;SDS011;3827;49.928;8.548;2023-04-15T07:58:43;5.65;;;5.15;;
7571;SDS011;3827;49.928;8.548;2023-04-15T08:01:11;6.15;;;5.55;;
7571;SDS011;3827;49.928;8.548;2023-04-15T08:03:38;6.50;;;5.90;;
7571;SDS011;3827;49.928;8.548;2023-04-15T08:06:05;5.38;;;4.97;;
7571;SDS011;3827;49.928;8.548;2023-04-15T08:08:32;6.17;;;5.67;;
7571;SDS011;3827;49.928;8.548;2023-04-15T08:10:59;6.40;;;5.80;;
7571;SDS011;3827;49.928;8.548;2023-04-15T08:13:26;7.05;;;6.07;;
7571;SDS011;3827;49.928;8.548;2023-04-15T08:18:44;6.18;;;5.53;;
7571;SDS011;3827;49.928;8.548;2023-04-15T08:21:11;6.20;;;5.70;;
7571;SDS011;3827;49.928;8.548;2023-04-15T08:23:38;6.60;;;6.00;;
7571;SDS011;3827;49.928;8.548;2023-04-15T08:26:05;6.25;;;5.65;;
7571;SDS011;3827;49.928;8.548;2023-04-15T08:28:32;6.22;;;5.35;;
7571;SDS011;3827;49.928;8.548;2023-04-15T08:30:59;6.78;;;5.55;;
7571;SDS011;3827;49.928;8.548;2023-04-15T08:33:27;5.68;;;5.25;;
7571;SDS011;3827;49.928;8.548;2023-04-15T08:35:54;5.90;;;5.40;;
7571;SDS011;3827;49.928;8.548;2023-04-15T08:38:21;5.80;;;5.20;;
7571;SDS011;3827;49.928;8.548;2023-04-15T08:40:48;5.57;;;5.07;;
7571;SDS011;3827;49.928;8.548;2023-04-15T08:43:18;5.43;;;4.95;;
7571;SDS011;3827;49.928;8.548;2023-04-15T08:45:48;5.30;;;4.80;;
7571;SDS011;3827;49.928;8.548;2023-04-15T08:48:17;4.90;;;4.50;;
7571;SDS011;3827;49.928;8.548;2023-04-15T08:50:45;4.60;;;4.13;;
7571;SDS011;3827;49.928;8.548;2023-04-15T08:53:13;4.97;;;4.20;;
7571;SDS011;3827;49.928;8.548;2023-04-15T08:55:41;4.80;;;4.40;;
7571;SDS011;3827;49.928;8.548;2023-04-15T08:58:11;4.32;;;4.03;;
7571;SDS011;3827;49.928;8.548;2023-04-15T09:00:38;5.10;;;4.70;;
7571;SDS011;3827;49.928;8.548;2023-04-15T09:03:05;15.55;;;6.53;;
7571;SDS011;3827;49.928;8.548;2023-04-15T09:05:34;6.82;;;4.53;;
7571;SDS011;3827;49.928;8.548;2023-04-15T09:08:03;3.80;;;3.22;;
7571;SDS011;3827;49.928;8.548;2023-04-15T09:10:30;5.18;;;3.50;;
7571;SDS011;3827;49.928;8.548;2023-04-15T09:12:58;3.43;;;3.10;;
7571;SDS011;3827;49.928;8.548;2023-04-15T09:15:26;3.63;;;3.10;;
7571;SDS011;3827;49.928;8.548;2023-04-15T09:17:54;3.20;;;2.90;;
7571;SDS011;3827;49.928;8.548;2023-04-15T09:20:21;3.42;;;3.10;;
7571;SDS011;3827;49.928;8.548;2023-04-15T09:22:49;25.55;;;6.68;;
7571;SDS011;3827;49.928;8.548;2023-04-15T09:25:28;3.73;;;3.17;;
7571;SDS011;3827;49.928;8.548;2023-04-15T09:27:55;9.95;;;4.35;;
7571;SDS011;3827;49.928;8.548;2023-04-15T09:30:25;3.13;;;2.60;;
7571;SDS011;3827;49.928;8.548;2023-04-15T09:32:53;2.60;;;2.35;;
7571;SDS011;3827;49.928;8.548;2023-04-15T09:35:21;3.38;;;2.58;;
7571;SDS011;3827;49.928;8.548;2023-04-15T09:37:49;2.40;;;2.20;;
7571;SDS011;3827;49.928;8.548;2023-04-15T09:40:30;1.98;;;1.77;;
7571;SDS011;3827;49.928;8.548;2023-04-15T09:42:58;2.95;;;2.17;;
7571;SDS011;3827;49.928;8.548;2023-04-15T09:45:26;2.72;;;2.10;;
7571;SDS011;3827;49.928;8.548;2023-04-15T09:47:53;2.92;;;1.80;;
7571;SDS011;3827;49.928;8.548;2023-04-15T09:50:21;2.38;;;1.90;;
7571;SDS011;3827;49.928;8.548;2023-04-15T09:52:52;1.70;;;1.60;;
7571;SDS011;3827;49.928;8.548;2023-04-15T09:55:18;3.00;;;1.60;;
7571;SDS011;3827;49.928;8.548;2023-04-15T09:57:47;1.95;;;1.70;;
7571;SDS011;3827;49.928;8.548;2023-04-15T10:00:14;2.75;;;1.90;;
7571;SDS011;3827;49.928;8.548;2023-04-15T10:02:41;3.10;;;2.13;;
7571;SDS011;3827;49.928;8.548;2023-04-15T10:05:09;2.60;;;1.80;;
7571;SDS011;3827;49.928;8.548;2023-04-15T10:07:37;3.17;;;2.00;;
7571;SDS011;3827;49.928;8.548;2023-04-15T10:10:07;2.25;;;2.00;;
7571;SDS011;3827;49.928;8.548;2023-04-15T10:12:34;3.80;;;2.40;;
7571;SDS011;3827;49.928;8.548;2023-04-15T10:15:04;3.00;;;2.20;;
7571;SDS011;3827;49.928;8.548;2023-04-15T10:17:33;2.65;;;2.05;;
7571;SDS011;3827;49.928;8.548;2023-04-15T10:20:02;3.13;;;2.17;;
7571;SDS011;3827;49.928;8.548;2023-04-15T10:22:30;2.95;;;2.10;;
7571;SDS011;3827;49.928;8.548;2023-04-15T10:24:57;2.13;;;1.92;;
7571;SDS011;3827;49.928;8.548;2023-04-15T10:27:25;2.85;;;2.30;;
7571;SDS011;3827;49.928;8.548;2023-04-15T10:29:52;1.70;;;1.60;;
7571;SDS011;3827;49.928;8.548;2023-04-15T10:32:24;3.20;;;1.88;;
7571;SDS011;3827;49.928;8.548;2023-04-15T10:34:51;2.50;;;2.00;;
7571;SDS011;3827;49.928;8.548;2023-04-15T10:37:19;3.13;;;2.10;;
7571;SDS011;3827;49.928;8.548;2023-04-15T10:39:46;9.20;;;2.78;;
7571;SDS011;3827;49.928;8.548;2023-04-15T10:42:14;3.90;;;2.43;;
7571;SDS011;3827;49.928;8.548;2023-04-15T10:44:42;2.80;;;2.10;;
7571;SDS011;3827;49.928;8.548;2023-04-15T10:47:10;2.13;;;1.92;;
7571;SDS011;3827;49.928;8.548;2023-04-15T10:49:43;3.05;;;2.10;;
7571;SDS011;3827;49.928;8.548;2023-04-15T10:52:12;2.05;;;1.95;;
7571;SDS011;3827;49.928;8.548;2023-04-15T10:54:40;2.40;;;2.20;;
7571;SDS011;3827;49.928;8.548;2023-04-15T10:57:08;2.13;;;2.03;;
7571;SDS011;3827;49.928;8.548;2023-04-15T11:02:43;2.28;;;2.08;;
7571;SDS011;3827;49.928;8.548;2023-04-15T11:05:14;2.65;;;1.95;;
7571;SDS011;3827;49.928;8.548;2023-04-15T11:07:49;3.00;;;1.90;;
7571;SDS011;3827;49.928;8.548;2023-04-15T11:13:24;2.00;;;1.70;;
7571;SDS011;3827;49.928;8.548;2023-04-15T11:15:56;1.77;;;1.40;;
7571;SDS011;3827;49.928;8.548;2023-04-15T11:18:25;2.70;;;1.50;;
7571;SDS011;3827;49.928;8.548;2023-04-15T11:20:56;2.47;;;1.60;;
7571;SDS011;3827;49.928;8.548;2023-04-15T11:23:29;1.90;;;1.58;;
7571;SDS011;3827;49.928;8.548;2023-04-15T11:25:58;2.88;;;1.77;;
7571;SDS011;3827;49.928;8.548;2023-04-15T11:28:26;2.13;;;1.83;;
7571;SDS011;3827;49.928;8.548;2023-04-15T11:30:54;2.63;;;1.58;;
7571;SDS011;3827;49.928;8.548;2023-04-15T11:33:22;1.80;;;1.52;;
7571;SDS011;3827;49.928;8.548;2023-04-15T11:35:50;1.40;;;1.30;;
7571;SDS011;3827;49.928;8.548;2023-04-15T11:38:20;2.60;;;1.60;;
7571;SDS011;3827;49.928;8.548;2023-04-15T11:40:47;1.73;;;1.40;;
7571;SDS011;3827;49.928;8.548;2023-04-15T11:43:16;1.60;;;1.40;;
7571;SDS011;3827;49.928;8.548;2023-04-15T11:45:48;2.10;;;1.38;;
7571;SDS011;3827;49.928;8.548;2023-04-15T11:48:16;1.33;;;1.10;;
7571;SDS011;3827;49.928;8.548;2023-04-15T11:50:44;1.67;;;1.05;;
7571;SDS011;3827;49.928;8.548;2023-04-15T11:53:11;1.10;;;1.00;;
7571;SDS011;3827;49.928;8.548;2023-04-15T11:55:41;1.77;;;1.17;;
7571;SDS011;3827;49.928;8.548;2023-04-15T11:58:10;1.38;;;1.10;;
7571;SDS011;3827;49.928;8.548;2023-04-15T12:00:39;1.85;;;1.15;;
7571;SDS011;3827;49.928;8.548;2023-04-15T12:03:13;7.05;;;1.50;;
7571;SDS011;3827;49.928;8.548;2023-04-15T12:11:20;2.35;;;0.85;;
7571;SDS011;3827;49.928;8.548;2023-04-15T12:13:56;1.83;;;0.90;;
7571;SDS011;3827;49.928;8.548;2023-04-15T12:16:24;0.70;;;0.67;;
7571;SDS011;3827;49.928;8.548;2023-04-15T12:18:53;1.73;;;0.90;;
7571;SDS011;3827;49.928;8.548;2023-04-15T12:21:23;1.00;;;0.90;;
7571;SDS011;3827;49.928;8.548;2023-04-15T12:23:51;3.47;;;1.00;;
7571;SDS011;3827;49.928;8.548;2023-04-15T12:26:26;3.00;;;1.17;;
7571;SDS011;3827;49.928;8.548;2023-04-15T12:28:53;1.90;;;1.40;;
7571;SDS011;3827;49.928;8.548;2023-04-15T12:31:21;3.13;;;1.20;;
7571;SDS011;3827;49.928;8.548;2023-04-15T12:33:48;2.83;;;1.60;;
7571;SDS011;3827;49.928;8.548;2023-04-15T12:36:15;1.70;;;1.30;;
7571;SDS011;3827;49.928;8.548;2023-04-15T12:38:42;2.13;;;1.60;;
7571;SDS011;3827;49.928;8.548;2023-04-15T12:41:09;2.78;;;1.60;;
7571;SDS011;3827;49.928;8.548;2023-04-15T12:43:37;2.60;;;1.73;;
7571;SDS011;3827;49.928;8.548;2023-04-15T12:46:04;1.75;;;1.40;;
7571;SDS011;3827;49.928;8.548;2023-04-15T12:48:32;3.28;;;1.80;;
7571;SDS011;3827;49.928;8.548;2023-04-15T12:50:59;3.70;;;1.80;;
7571;SDS011;3827;49.928;8.548;2023-04-15T12:53:26;1.45;;;1.30;;
7571;SDS011;3827;49.928;8.548;2023-04-15T12:55:53;1.20;;;1.10;;
7571;SDS011;3827;49.928;8.548;2023-04-15T12:58:20;1.52;;;1.20;;
7571;SDS011;3827;49.928;8.548;2023-04-15T13:00:48;1.20;;;1.10;;
7571;SDS011;3827;49.928;8.548;2023-04-15T13:03:15;1.50;;;1.40;;
7571;SDS011;3827;49.928;8.548;2023-04-15T13:05:42;1.60;;;1.50;;
7571;SDS011;3827;49.928;8.548;2023-04-15T13:08:09;1.80;;;1.70;;
7571;SDS011;3827;49.928;8.548;2023-04-15T13:10:36;2.00;;;1.80;;
7571;SDS011;3827;49.928;8.548;2023-04-15T13:13:03;2.00;;;1.90;;
7571;SDS011;3827;49.928;8.548;2023-04-15T13:15:30;2.13;;;1.92;;
7571;SDS011;3827;49.928;8.548;2023-04-15T13:17:59;2.42;;;2.08;;
7571;SDS011;3827;49.928;8.548;2023-04-15T13:20:26;1.73;;;1.52;;
7571;SDS011;3827;49.928;8.548;2023-04-15T13:22:53;2.20;;;1.60;;
7571;SDS011;3827;49.928;8.548;2023-04-15T13:25:20;1.60;;;1.50;;
7571;SDS011;3827;49.928;8.548;2023-04-15T13:27:47;1.05;;;1.02;;
7571;SDS011;3827;49.928;8.548;2023-04-15T13:30:15;1.40;;;1.30;;
7571;SDS011;3827;49.928;8.548;2023-04-15T13:32:42;2.90;;;1.42;;
7571;SDS011;3827;49.928;8.548;2023-04-15T13:35:10;1.50;;;1.40;;
7571;SDS011;3827;49.928;8.548;2023-04-15T13:37:37;2.05;;;1.63;;
7571;SDS011;3827;49.928;8.548;2023-04-15T13:40:04;1.40;;;1.30;;
7571;SDS011;3827;49.928;8.548;2023-04-15T13:42:32;1.60;;;1.20;;
7571;SDS011;3827;49.928;8.548;2023-04-15T13:44:59;1.20;;;1.10;;
7571;SDS011;3827;49.928;8.548;2023-04-15T13:47:26;1.47;;;1.30;;
7571;SDS011;3827;49.928;8.548;2023-04-15T13:49:52;1.20;;;1.10;;
7571;SDS011;3827;49.928;8.548;2023-04-15T13:52:22;0.90;;;0.90;;
7571;SDS011;3827;49.928;8.548;2023-04-15T13:54:49;1.10;;;0.82;;
7571;SDS011;3827;49.928;8.548;2023-04-15T13:57:16;0.90;;;0.90;;
7571;SDS011;3827;49.928;8.548;2023-04-15T13:59:42;0.80;;;0.80;;
7571;SDS011;3827;49.928;8.548;2023-04-15T14:02:09;0.60;;;0.60;;
7571;SDS011;3827;49.928;8.548;2023-04-15T14:04:36;0.70;;;0.70;;
7571;SDS011;3827;49.928;8.548;2023-04-15T14:07:03;0.70;;;0.70;;
7571;SDS011;3827;49.928;8.548;2023-04-15T14:09:31;1.10;;;1.00;;
7571;SDS011;3827;49.928;8.548;2023-04-15T14:11:58;0.65;;;0.65;;
7571;SDS011;3827;49.928;8.548;2023-04-15T14:14:26;0.90;;;0.80;;
7571;SDS011;3827;49.928;8.548;2023-04-15T14:16:53;0.80;;;0.80;;
7571;SDS011;3827;49.928;8.548;2023-04-15T14:19:20;0.73;;;0.73;;
7571;SDS011;3827;49.928;8.548;2023-04-15T14:21:47;0.77;;;0.70;;
7571;SDS011;3827;49.928;8.548;2023-04-15T14:24:14;0.80;;;0.80;;
7571;SDS011;3827;49.928;8.548;2023-04-15T14:26:42;0.70;;;0.70;;
7571;SDS011;3827;49.928;8.548;2023-04-15T14:29:09;0.57;;;0.57;;
7571;SDS011;3827;49.928;8.548;2023-04-15T14:31:36;0.73;;;0.73;;
7571;SDS011;3827;49.928;8.548;2023-04-15T14:34:03;1.45;;;0.70;;
7571;SDS011;3827;49.928;8.548;2023-04-15T14:36:30;0.80;;;0.80;;
7571;SDS011;3827;49.928;8.548;2023-04-15T14:38:57;1.40;;;1.05;;
7571;SDS011;3827;49.928;8.548;2023-04-15T14:41:24;1.10;;;1.00;;
7571;SDS011;3827;49.928;8.548;2023-04-15T14:43:52;2.03;;;0.73;;
7571;SDS011;3827;49.928;8.548;2023-04-15T14:46:20;1.45;;;0.98;;
7571;SDS011;3827;49.928;8.548;2023-04-15T14:48:47;1.13;;;1.13;;
7571;SDS011;3827;49.928;8.548;2023-04-15T14:51:14;1.70;;;1.30;;
7571;SDS011;3827;49.928;8.548;2023-04-15T14:53:41;3.00;;;1.60;;
7571;SDS011;3827;49.928;8.548;2023-04-15T14:56:08;1.67;;;1.45;;
7571;SDS011;3827;49.928;8.548;2023-04-15T14:58:35;1.10;;;1.10;;
7571;SDS011;3827;49.928;8.548;2023-04-15T15:01:03;1.17;;;1.10;;
7571;SDS011;3827;49.928;8.548;2023-04-15T15:03:30;2.10;;;1.27;;
7571;SDS011;3827;49.928;8.548;2023-04-15T15:05:58;1.13;;;1.13;;
7571;SDS011;3827;49.928;8.548;2023-04-15T15:08:25;1.10;;;1.10;;
7571;SDS011;3827;49.928;8.548;2023-04-15T15:10:52;1.35;;;1.25;;
7571;SDS011;3827;49.928;8.548;2023-04-15T15:13:19;1.27;;;1.20;;
7571;SDS011;3827;49.928;8.548;2023-04-15T15:15:45;1.53;;;1.43;;
7571;SDS011;3827;49.928;8.548;2023-04-15T15:18:15;1.95;;;1.52;;
7571;SDS011;3827;49.928;8.548;2023-04-15T15:20:43;1.25;;;1.17;;
7571;SDS011;3827;49.928;8.548;2023-04-15T15:23:10;1.10;;;1.10;;
7571;SDS011;3827;49.928;8.548;2023-04-15T15:25:37;1.13;;;1.10;;
7571;SDS011;3827;49.928;8.548;2023-04-15T15:28:04;1.20;;;1.10;;
7571;SDS011;3827;49.928;8.548;2023-04-15T15:30:32;0.90;;;0.90;;
7571;SDS011;3827;49.928;8.548;2023-04-15T15:32:58;1.30;;;1.20;;
7571;SDS011;3827;49.928;8.548;2023-04-15T15:35:27;1.17;;;1.08;;